createdAt,value
2018-09-20T00:01:28.126Z,3.50
2018-09-20T00:02:28.123Z,3.50
2018-09-20T00:03:28.127Z,3.20
2018-09-20T00:04:28.122Z,3.40
2018-09-20T00:05:28.114Z,3.30
2018-09-20T00:06:28.113Z,3.80
2018-09-20T00:07:28.119Z,3.20
2018-09-20T00:08:28.114Z,3.80
2018-09-20T00:09:28.107Z,3.30
2018-09-20T00:10:28.106Z,3.20
2018-09-20T00:11:28.105Z,3.70
2018-09-20T00:12:28.102Z,3.40
2018-09-20T00:13:28.104Z,4.20
2018-09-20T00:14:28.102Z,3.50
2018-09-20T00:15:28.101Z,3.90
2018-09-20T00:16:28.100Z,3.40
2018-09-20T00:17:28.092Z,3.10
2018-09-20T00:18:28.091Z,3.90
2018-09-20T00:19:28.089Z,3.20
2018-09-20T00:20:28.088Z,3.30
2018-09-20T00:21:28.089Z,3.30
2018-09-20T00:22:28.087Z,2.90
2018-09-20T00:23:28.082Z,3.90
2018-09-20T00:24:28.079Z,3.80
2018-09-20T00:25:28.082Z,3.70
2018-09-20T00:26:28.080Z,3.30
2018-09-20T00:27:28.080Z,3.60
2018-09-20T00:28:28.078Z,3.60
2018-09-20T00:29:28.070Z,3.60
2018-09-20T00:30:28.069Z,3.50
2018-09-20T00:31:28.067Z,3.40
2018-09-20T00:32:28.069Z,3.40
2018-09-20T00:33:28.068Z,3.90
2018-09-20T00:34:28.065Z,3.70
2018-09-20T00:35:28.063Z,3.50
2018-09-20T00:36:28.062Z,3.50
2018-09-20T00:37:28.054Z,3.50
2018-09-20T00:38:28.053Z,3.10
2018-09-20T00:39:28.056Z,3.30
2018-09-20T00:40:28.054Z,3.20
2018-09-20T00:41:28.048Z,3.70
2018-09-20T00:42:28.046Z,3.30
2018-09-20T00:43:28.044Z,3.40
2018-09-20T00:44:28.042Z,3.50
2018-09-20T00:45:28.044Z,3.10
2018-09-20T00:46:28.043Z,3.40
2018-09-20T00:47:28.040Z,3.00
2018-09-20T00:48:28.038Z,3.60
2018-09-20T00:49:28.032Z,3.30
2018-09-20T00:50:28.034Z,4.30
2018-09-20T00:51:28.029Z,3.60
2018-09-20T00:52:28.026Z,3.80
2018-09-20T00:53:28.028Z,3.50
2018-09-20T00:54:28.026Z,3.60
2018-09-20T00:55:28.019Z,3.60
2018-09-20T00:56:28.017Z,3.70
2018-09-20T00:57:28.020Z,3.70
2018-09-20T00:58:28.018Z,3.40
2018-09-20T00:59:28.017Z,3.40
2018-09-20T01:00:28.017Z,3.70
2018-09-20T01:01:28.006Z,3.80
2018-09-20T01:02:28.005Z,3.70
2018-09-20T01:03:28.003Z,3.60
2018-09-20T01:04:28.002Z,3.50
2018-09-20T01:05:28.003Z,3.60
2018-09-20T01:06:28.002Z,3.20
2018-09-20T01:07:27.999Z,3.70
2018-09-20T01:08:27.998Z,3.70
2018-09-20T01:09:27.990Z,3.80
2018-09-20T01:10:27.988Z,3.70
2018-09-20T01:11:27.991Z,3.50
2018-09-20T01:12:27.988Z,3.40
2018-09-20T01:13:27.981Z,3.40
2018-09-20T01:14:27.980Z,3.40
2018-09-20T01:15:27.977Z,3.30
2018-09-20T01:16:27.974Z,3.30
2018-09-20T01:17:27.977Z,3.50
2018-09-20T01:18:27.977Z,3.00
2018-09-20T01:19:27.972Z,3.70
2018-09-20T01:20:27.971Z,4.00
2018-09-20T01:21:27.963Z,3.80
2018-09-20T01:22:27.960Z,3.70
2018-09-20T01:23:27.959Z,3.80
2018-09-20T01:24:27.956Z,3.70
2018-09-20T01:25:27.958Z,3.50
2018-09-20T01:26:27.957Z,3.60
2018-09-20T01:27:27.949Z,3.70
2018-09-20T01:28:27.947Z,3.60
2018-09-20T01:29:27.949Z,4.00
2018-09-20T01:30:27.946Z,4.00
2018-09-20T01:31:27.944Z,3.40
2018-09-20T01:32:27.941Z,4.50
2018-09-20T01:33:27.934Z,3.90
2018-09-20T01:34:27.932Z,4.20
2018-09-20T01:35:27.945Z,3.90
2018-09-20T01:36:27.934Z,3.80
2018-09-20T01:37:27.928Z,3.60
2018-09-20T01:38:27.928Z,4.20
2018-09-20T01:39:27.923Z,3.80
2018-09-20T01:40:27.921Z,4.10
2018-09-20T01:41:27.913Z,3.70
2018-09-20T01:42:27.910Z,4.10
2018-09-20T01:43:27.913Z,4.30
2018-09-20T01:44:27.910Z,4.10
2018-09-20T01:45:27.905Z,4.40
2018-09-20T01:46:27.900Z,4.10
2018-09-20T01:47:27.898Z,3.90
2018-09-20T01:48:27.894Z,3.90
2018-09-20T01:49:27.896Z,3.90
2018-09-20T01:50:27.895Z,4.10
2018-09-20T01:51:27.899Z,4.20
2018-09-20T01:52:27.888Z,3.80
2018-09-20T01:53:27.883Z,4.10
2018-09-20T01:54:27.879Z,4.10
2018-09-20T01:55:27.875Z,3.80
2018-09-20T01:56:27.876Z,3.70
2018-09-20T01:57:27.877Z,4.00
2018-09-20T01:58:27.872Z,4.20
2018-09-20T01:59:27.865Z,3.80
2018-09-20T02:00:27.863Z,3.90
2018-09-20T02:01:27.865Z,4.00
2018-09-20T02:02:27.862Z,4.20
2018-09-20T02:03:27.858Z,4.10
2018-09-20T02:04:27.855Z,4.00
2018-09-20T02:05:27.849Z,4.00
2018-09-20T02:06:27.848Z,3.50
2018-09-20T02:07:27.843Z,4.00
2018-09-20T02:08:27.841Z,4.40
2018-09-20T02:09:27.841Z,3.80
2018-09-20T02:10:27.838Z,3.70
2018-09-20T02:11:27.836Z,3.90
2018-09-20T02:12:27.835Z,3.90
2018-09-20T02:13:27.827Z,4.00
2018-09-20T02:14:27.824Z,4.10
2018-09-20T02:15:27.832Z,3.60
2018-09-20T02:16:27.825Z,4.10
2018-09-20T02:17:27.815Z,3.40
2018-09-20T02:18:27.813Z,3.70
2018-09-20T02:19:27.811Z,3.80
2018-09-20T02:20:27.809Z,4.10
2018-09-20T02:21:27.817Z,4.10
2018-09-20T02:22:27.807Z,4.10
2018-09-20T02:23:27.807Z,3.80
2018-09-20T02:24:27.801Z,3.90
2018-09-20T02:25:27.796Z,4.00
2018-09-20T02:26:27.793Z,3.60
2018-09-20T02:27:27.791Z,4.20
2018-09-20T02:28:27.787Z,4.10
2018-09-20T02:29:27.789Z,4.10
2018-09-20T02:30:27.787Z,4.40
2018-09-20T02:31:27.780Z,3.80
2018-09-20T02:32:27.777Z,4.00
2018-09-20T02:33:27.778Z,3.50
2018-09-20T02:34:27.777Z,3.80
2018-09-20T02:35:27.773Z,3.80
2018-09-20T02:36:27.787Z,4.10
2018-09-20T02:37:27.763Z,4.00
2018-09-20T02:38:27.762Z,4.00
2018-09-20T02:39:27.759Z,3.80
2018-09-20T02:40:27.756Z,4.10
2018-09-20T02:41:27.759Z,4.20
2018-09-20T02:42:27.755Z,4.20
2018-09-20T02:43:27.753Z,3.70
2018-09-20T02:44:27.752Z,4.10
2018-09-20T02:45:27.741Z,4.30
2018-09-20T02:46:27.743Z,3.60
2018-09-20T02:47:27.747Z,4.00
2018-09-20T02:48:27.740Z,3.90
2018-09-20T02:49:27.731Z,4.10
2018-09-20T02:50:27.728Z,4.20
2018-09-20T02:51:27.726Z,4.10
2018-09-20T02:52:27.724Z,4.50
2018-09-20T02:53:27.726Z,4.60
2018-09-20T02:54:27.722Z,4.20
2018-09-20T02:55:27.720Z,4.30
2018-09-20T02:56:27.716Z,4.90
2018-09-20T02:57:27.711Z,4.40
2018-09-20T02:58:27.706Z,4.40
2018-09-20T02:59:27.704Z,4.60
2018-09-20T03:00:27.701Z,4.00
2018-09-20T03:01:27.704Z,4.40
2018-09-20T03:02:27.704Z,4.40
2018-09-20T03:03:27.693Z,4.60
2018-09-20T03:04:27.688Z,4.30
2018-09-20T03:05:27.690Z,4.10
2018-09-20T03:06:27.690Z,4.10
2018-09-20T03:07:27.685Z,4.60
2018-09-20T03:08:27.681Z,4.70
2018-09-20T03:09:27.673Z,4.20
2018-09-20T03:10:27.671Z,4.50
2018-09-20T03:11:27.669Z,4.40
2018-09-20T03:12:27.667Z,4.30
2018-09-20T03:13:27.677Z,4.10
2018-09-20T03:14:27.664Z,4.80
2018-09-20T03:15:27.663Z,4.60
2018-09-20T03:16:27.660Z,4.70
2018-09-20T03:17:27.651Z,4.40
2018-09-20T03:18:27.650Z,4.70
2018-09-20T03:19:27.652Z,4.70
2018-09-20T03:20:27.649Z,4.40
2018-09-20T03:21:27.639Z,4.10
2018-09-20T03:22:27.637Z,4.20
2018-09-20T03:23:27.638Z,4.80
2018-09-20T03:24:27.631Z,4.90
2018-09-20T03:25:27.633Z,4.80
2018-09-20T03:26:27.636Z,4.40
2018-09-20T03:27:27.628Z,4.30
2018-09-20T03:28:27.626Z,4.70
2018-09-20T03:29:27.617Z,5.00
2018-09-20T03:30:27.625Z,5.00
2018-09-20T03:31:27.611Z,4.90
2018-09-20T03:32:27.612Z,4.60
2018-09-20T03:33:27.609Z,4.70
2018-09-20T03:34:27.606Z,4.80
2018-09-20T03:35:27.616Z,4.70
2018-09-20T03:36:27.596Z,4.50
2018-09-20T03:37:27.605Z,4.20
2018-09-20T03:38:27.594Z,4.40
2018-09-20T03:39:27.593Z,4.50
2018-09-20T03:40:27.589Z,4.50
2018-09-20T03:41:27.581Z,4.30
2018-09-20T03:42:27.579Z,4.70
2018-09-20T03:43:27.576Z,4.60
2018-09-20T03:44:27.574Z,5.00
2018-09-20T03:45:27.575Z,4.80
2018-09-20T03:46:27.571Z,5.00
2018-09-20T03:47:27.568Z,4.50
2018-09-20T03:48:27.566Z,4.40
2018-09-20T03:49:27.558Z,5.10
2018-09-20T03:50:27.554Z,4.40
2018-09-20T03:51:27.561Z,4.50
2018-09-20T03:52:27.553Z,4.70
2018-09-20T03:53:27.545Z,5.00
2018-09-20T03:54:27.542Z,5.40
2018-09-20T03:55:27.540Z,4.90
2018-09-20T03:56:27.538Z,4.50
2018-09-20T03:57:27.560Z,5.10
2018-09-20T03:58:27.536Z,4.80
2018-09-20T03:59:27.533Z,5.00
2018-09-20T04:00:27.530Z,4.90
2018-09-20T04:01:27.524Z,4.90
2018-09-20T04:02:27.520Z,4.90
2018-09-20T04:03:27.516Z,5.00
2018-09-20T04:04:27.512Z,5.00
2018-09-20T04:05:27.526Z,4.80
2018-09-20T04:06:27.514Z,4.60
2018-09-20T04:07:27.504Z,5.40
2018-09-20T04:08:27.502Z,4.80
2018-09-20T04:09:27.517Z,4.90
2018-09-20T04:10:27.500Z,4.70
2018-09-20T04:11:27.496Z,5.20
2018-09-20T04:12:27.495Z,5.30
2018-09-20T04:13:27.485Z,4.50
2018-09-20T04:14:27.483Z,4.80
2018-09-20T04:15:27.481Z,4.90
2018-09-20T04:16:27.482Z,5.20
2018-09-20T04:17:27.480Z,4.80
2018-09-20T04:18:27.476Z,5.00
2018-09-20T04:19:27.472Z,5.00
2018-09-20T04:20:27.472Z,5.00
2018-09-20T04:21:27.462Z,5.00
2018-09-20T04:22:27.458Z,4.60
2018-09-20T04:23:27.459Z,5.20
2018-09-20T04:24:27.458Z,4.80
2018-09-20T04:25:27.450Z,4.90
2018-09-20T04:26:27.446Z,5.20
2018-09-20T04:27:27.449Z,4.90
2018-09-20T04:28:27.442Z,4.90
2018-09-20T04:29:27.445Z,4.70
2018-09-20T04:30:27.440Z,5.20
2018-09-20T04:31:27.435Z,4.80
2018-09-20T04:32:27.433Z,5.00
2018-09-20T04:33:27.424Z,4.60
2018-09-20T04:34:27.423Z,4.90
2018-09-20T04:35:27.421Z,5.10
2018-09-20T04:36:27.418Z,4.90
2018-09-20T04:37:27.422Z,4.70
2018-09-20T04:38:27.417Z,4.70
2018-09-20T04:39:27.408Z,4.70
2018-09-20T04:40:27.406Z,5.10
2018-09-20T04:41:27.412Z,4.60
2018-09-20T04:42:27.405Z,4.70
2018-09-20T04:43:27.402Z,5.10
2018-09-20T04:44:27.400Z,4.60
2018-09-20T04:45:27.391Z,5.40
2018-09-20T04:46:27.389Z,5.00
2018-09-20T04:47:27.386Z,4.90
2018-09-20T04:48:27.382Z,5.10
2018-09-20T04:49:27.384Z,4.70
2018-09-20T04:50:27.380Z,4.90
2018-09-20T04:51:27.383Z,4.70
2018-09-20T04:52:27.375Z,5.00
2018-09-20T04:53:27.427Z,5.60
2018-09-20T04:54:27.364Z,5.10
2018-09-20T04:55:27.367Z,5.30
2018-09-20T04:56:27.364Z,4.60
2018-09-20T04:57:27.354Z,4.70
2018-09-20T04:58:27.355Z,5.30
2018-09-20T04:59:27.352Z,4.90
2018-09-20T05:00:27.347Z,5.20
2018-09-20T05:01:27.346Z,5.20
2018-09-20T05:02:27.344Z,4.80
2018-09-20T05:03:27.341Z,5.40
2018-09-20T05:04:27.340Z,4.90
2018-09-20T05:05:27.330Z,5.40
2018-09-20T05:06:27.327Z,5.50
2018-09-20T05:07:27.329Z,4.80
2018-09-20T05:08:27.321Z,5.60
2018-09-20T05:09:27.353Z,4.80
2018-09-20T05:10:27.322Z,5.00
2018-09-20T05:11:27.314Z,5.90
2018-09-20T05:12:27.311Z,5.00
2018-09-20T05:13:27.311Z,5.30
2018-09-20T05:14:27.315Z,4.90
2018-09-20T05:15:27.304Z,5.00
2018-09-20T05:16:27.302Z,4.90
2018-09-20T05:17:27.294Z,4.90
2018-09-20T05:18:27.289Z,5.00
2018-09-20T05:19:27.287Z,5.10
2018-09-20T05:20:27.286Z,5.20
2018-09-20T05:21:27.286Z,5.10
2018-09-20T05:22:27.282Z,5.00
2018-09-20T05:23:27.318Z,5.30
2018-09-20T05:24:27.277Z,5.00
2018-09-20T05:25:27.269Z,5.20
2018-09-20T05:26:27.268Z,4.90
2018-09-20T05:27:27.268Z,4.30
2018-09-20T05:28:27.268Z,5.70
2018-09-20T05:29:27.257Z,4.90
2018-09-20T05:30:27.254Z,5.00
2018-09-20T05:31:27.250Z,5.00
2018-09-20T05:32:27.247Z,4.80
2018-09-20T05:33:27.250Z,5.50
2018-09-20T05:34:27.244Z,4.80
2018-09-20T05:35:27.275Z,5.10
2018-09-20T05:36:27.241Z,5.10
2018-09-20T05:37:27.235Z,5.40
2018-09-20T05:38:27.232Z,5.40
2018-09-20T05:39:27.231Z,5.20
2018-09-20T05:40:27.224Z,5.30
2018-09-20T05:41:27.224Z,4.60
2018-09-20T05:42:27.223Z,5.30
2018-09-20T05:43:27.241Z,5.00
2018-09-20T05:44:27.213Z,5.30
2018-09-20T05:45:27.217Z,5.00
2018-09-20T05:46:27.210Z,5.40
2018-09-20T05:47:27.209Z,5.10
2018-09-20T05:48:27.206Z,5.10
2018-09-20T05:49:27.198Z,5.00
2018-09-20T05:50:27.199Z,5.30
2018-09-20T05:51:27.193Z,5.20
2018-09-20T05:52:27.191Z,4.50
2018-09-20T05:53:27.197Z,5.30
2018-09-20T05:54:27.191Z,5.00
2018-09-20T05:55:27.195Z,4.80
2018-09-20T05:56:27.185Z,5.30
2018-09-20T05:57:27.181Z,4.80
2018-09-20T05:58:27.176Z,5.10
2018-09-20T05:59:27.180Z,4.90
2018-09-20T06:00:27.177Z,5.50
2018-09-20T06:01:27.170Z,4.70
2018-09-20T06:02:27.168Z,5.50
2018-09-20T06:03:27.165Z,5.50
2018-09-20T06:04:27.164Z,5.40
2018-09-20T06:05:27.174Z,5.00
2018-09-20T06:06:27.164Z,5.20
2018-09-20T06:07:27.163Z,5.70
2018-09-20T06:08:27.161Z,5.10
2018-09-20T06:09:27.153Z,5.30
2018-09-20T06:10:27.151Z,5.90
2018-09-20T06:11:27.148Z,5.10
2018-09-20T06:12:27.145Z,5.10
2018-09-20T06:13:27.149Z,4.80
2018-09-20T06:14:27.145Z,5.20
2018-09-20T06:15:27.140Z,5.10
2018-09-20T06:16:27.140Z,6.10
2018-09-20T06:17:27.140Z,5.40
2018-09-20T06:18:27.139Z,4.90
2018-09-20T06:19:27.139Z,5.30
2018-09-20T06:20:27.138Z,5.10
2018-09-20T06:21:27.131Z,4.90
2018-09-20T06:22:27.129Z,5.00
2018-09-20T06:23:27.129Z,5.10
2018-09-20T06:24:27.129Z,4.90
2018-09-20T06:25:27.131Z,5.40
2018-09-20T06:26:27.130Z,4.60
2018-09-20T06:27:27.130Z,5.20
2018-09-20T06:28:27.129Z,4.80
2018-09-20T06:29:27.126Z,4.80
2018-09-20T06:30:27.124Z,4.80
2018-09-20T06:31:27.127Z,4.60
2018-09-20T06:32:27.125Z,4.60
2018-09-20T06:33:27.119Z,5.00
2018-09-20T06:34:27.119Z,4.80
2018-09-20T06:35:27.120Z,4.90
2018-09-20T06:36:27.120Z,5.00
2018-09-20T06:37:27.138Z,4.60
2018-09-20T06:38:27.125Z,5.30
2018-09-20T06:39:27.122Z,5.10
2018-09-20T06:40:27.121Z,4.90
2018-09-20T06:41:27.126Z,4.90
2018-09-20T06:42:27.128Z,5.10
2018-09-20T06:43:27.129Z,5.20
2018-09-20T06:44:27.130Z,5.50
2018-09-20T06:45:27.124Z,4.90
2018-09-20T06:46:27.125Z,5.30
2018-09-20T06:47:27.132Z,5.30
2018-09-20T06:48:27.133Z,5.20
2018-09-20T06:49:27.127Z,5.20
2018-09-20T06:50:27.210Z,5.70
2018-09-20T06:51:27.131Z,5.80
2018-09-20T06:52:27.131Z,5.10
2018-09-20T06:53:27.135Z,5.80
2018-09-20T06:54:27.136Z,5.60
2018-09-20T06:55:27.139Z,5.30
2018-09-20T06:56:27.191Z,5.40
2018-09-20T06:57:27.137Z,5.00
2018-09-20T06:58:27.139Z,5.30
2018-09-20T06:59:27.139Z,5.20
2018-09-20T07:00:27.141Z,6.20
2018-09-20T07:01:27.147Z,5.10
2018-09-20T07:02:27.150Z,5.30
2018-09-20T07:03:27.146Z,5.00
2018-09-20T07:04:27.149Z,5.50
2018-09-20T07:05:27.160Z,4.90
2018-09-20T07:06:27.160Z,5.40
2018-09-20T07:07:27.162Z,5.20
2018-09-20T07:08:27.166Z,5.20
2018-09-20T07:09:27.165Z,5.20
2018-09-20T07:10:27.169Z,5.10
2018-09-20T07:11:27.172Z,4.90
2018-09-20T07:12:27.176Z,5.00
2018-09-20T07:13:27.183Z,4.90
2018-09-20T07:14:27.187Z,5.30
2018-09-20T07:15:27.197Z,5.10
2018-09-20T07:16:27.197Z,5.60
2018-09-20T07:17:27.195Z,5.00
2018-09-20T07:18:27.200Z,4.90
2018-09-20T07:19:27.210Z,5.80
2018-09-20T07:20:27.218Z,5.40
2018-09-20T07:21:27.212Z,5.00
2018-09-20T07:22:27.218Z,5.00
2018-09-20T07:23:27.224Z,5.30
2018-09-20T07:24:27.232Z,5.30
2018-09-20T07:25:27.289Z,5.10
2018-09-20T07:26:27.244Z,5.40
2018-09-20T07:27:27.249Z,5.10
2018-09-20T07:28:27.253Z,5.00
2018-09-20T07:29:27.254Z,5.20
2018-09-20T07:30:27.261Z,5.40
2018-09-20T07:31:27.269Z,5.00
2018-09-20T07:32:27.274Z,5.10
2018-09-20T07:33:27.281Z,5.00
2018-09-20T07:34:27.287Z,5.90
2018-09-20T07:35:27.289Z,5.50
2018-09-20T07:36:27.295Z,5.40
2018-09-20T07:37:27.304Z,5.20
2018-09-20T07:38:27.310Z,4.90
2018-09-20T07:39:27.316Z,5.10
2018-09-20T07:40:27.321Z,4.90
2018-09-20T07:41:27.323Z,5.10
2018-09-20T07:42:27.329Z,4.90
2018-09-20T07:43:27.377Z,5.00
2018-09-20T07:44:27.341Z,4.70
2018-09-20T07:45:27.352Z,5.10
2018-09-20T07:46:27.357Z,4.80
2018-09-20T07:47:27.365Z,4.60
2018-09-20T07:48:27.369Z,4.80
2018-09-20T07:49:27.370Z,5.40
2018-09-20T07:50:27.376Z,4.40
2018-09-20T07:51:27.385Z,5.00
2018-09-20T07:52:27.393Z,4.90
2018-09-20T07:53:27.392Z,4.80
2018-09-20T07:54:27.397Z,4.50
2018-09-20T07:55:27.405Z,4.60
2018-09-20T07:56:27.408Z,4.70
2018-09-20T07:57:27.418Z,4.30
2018-09-20T07:58:27.427Z,4.70
2018-09-20T07:59:27.428Z,4.00
2018-09-20T08:00:27.432Z,4.50
2018-09-20T08:01:27.495Z,4.20
2018-09-20T08:02:27.434Z,4.20
2018-09-20T08:03:27.443Z,4.00
2018-09-20T08:04:27.443Z,4.00
2018-09-20T08:05:27.452Z,4.00
2018-09-20T08:06:27.456Z,4.30
2018-09-20T08:07:27.455Z,3.80
2018-09-20T08:08:27.461Z,4.00
2018-09-20T08:09:27.468Z,4.20
2018-09-20T08:10:27.474Z,3.90
2018-09-20T08:11:27.477Z,3.70
2018-09-20T08:12:27.482Z,3.70
2018-09-20T08:13:27.480Z,3.90
2018-09-20T08:14:27.486Z,3.80
2018-09-20T08:15:27.490Z,3.40
2018-09-20T08:16:27.494Z,3.50
2018-09-20T08:17:27.507Z,3.80
2018-09-20T08:18:27.509Z,4.20
2018-09-20T08:19:27.514Z,3.90
2018-09-20T08:20:27.522Z,3.60
2018-09-20T08:21:27.571Z,3.70
2018-09-20T08:22:27.523Z,3.90
2018-09-20T08:23:27.535Z,3.70
2018-09-20T08:24:27.540Z,3.60
2018-09-20T08:25:27.542Z,3.60
2018-09-20T08:26:27.547Z,3.30
2018-09-20T08:27:27.556Z,3.30
2018-09-20T08:28:27.561Z,3.60
2018-09-20T08:29:27.574Z,3.20
2018-09-20T08:30:27.581Z,3.60
2018-09-20T08:31:27.587Z,3.20
2018-09-20T08:32:27.593Z,3.00
2018-09-20T08:33:27.594Z,3.90
2018-09-20T08:34:27.603Z,3.20
2018-09-20T08:35:27.612Z,3.20
2018-09-20T08:36:27.632Z,3.50
2018-09-20T08:37:27.699Z,3.60
2018-09-20T08:38:27.641Z,3.20
2018-09-20T08:39:27.646Z,3.30
2018-09-20T08:40:27.655Z,3.10
2018-09-20T08:41:27.668Z,3.40
2018-09-20T08:42:27.677Z,3.50
2018-09-20T08:43:27.690Z,3.40
2018-09-20T08:44:27.700Z,3.30
2018-09-20T08:45:27.703Z,3.40
2018-09-20T08:46:27.714Z,3.20
2018-09-20T08:47:27.726Z,3.60
2018-09-20T08:48:27.736Z,3.60
2018-09-20T08:49:27.750Z,3.40
2018-09-20T08:50:27.761Z,3.40
2018-09-20T08:51:27.774Z,3.20
2018-09-20T08:52:27.783Z,4.00
2018-09-20T08:53:27.789Z,3.20
2018-09-20T08:54:27.801Z,3.40
2018-09-20T08:55:27.817Z,3.00
2018-09-20T08:56:27.828Z,3.30
2018-09-20T08:57:27.833Z,3.30
2018-09-20T08:58:27.846Z,3.00
2018-09-20T08:59:27.858Z,3.10
2018-09-20T09:00:27.871Z,3.00
2018-09-20T09:01:27.886Z,3.20
2018-09-20T09:02:27.898Z,3.90
2018-09-20T09:03:27.911Z,3.40
2018-09-20T09:04:27.975Z,3.50
2018-09-20T09:05:27.931Z,3.30
2018-09-20T09:06:27.943Z,3.20
2018-09-20T09:07:27.958Z,3.00
2018-09-20T09:08:27.968Z,3.30
2018-09-20T09:09:27.985Z,3.10
2018-09-20T09:10:27.998Z,3.10
2018-09-20T09:11:28.004Z,3.40
2018-09-20T09:12:28.019Z,2.50
2018-09-20T09:13:28.036Z,2.40
2018-09-20T09:14:28.047Z,2.80
2018-09-20T09:15:28.059Z,2.80
2018-09-20T09:16:28.073Z,2.90
2018-09-20T09:17:28.079Z,2.80
2018-09-20T09:18:28.097Z,2.90
2018-09-20T09:19:28.107Z,3.00
2018-09-20T09:20:28.119Z,2.80
2018-09-20T09:21:28.141Z,2.70
2018-09-20T09:22:28.149Z,2.70
2018-09-20T09:23:28.163Z,2.70
2018-09-20T09:24:28.176Z,2.80
2018-09-20T09:25:28.236Z,2.80
2018-09-20T09:26:28.197Z,2.80
2018-09-20T09:27:28.214Z,2.70
2018-09-20T09:28:28.283Z,2.60
2018-09-20T09:29:28.236Z,2.60
2018-09-20T09:30:28.248Z,2.60
2018-09-20T09:31:28.264Z,2.50
2018-09-20T09:32:28.275Z,2.70
2018-09-20T09:33:28.290Z,2.40
2018-09-20T09:34:28.302Z,2.70
2018-09-20T09:35:28.314Z,2.40
2018-09-20T09:36:28.325Z,3.30
2018-09-20T09:37:28.330Z,2.60
2018-09-20T09:38:28.342Z,2.70
2018-09-20T09:39:28.356Z,2.50
2018-09-20T09:40:28.368Z,2.60
2018-09-20T09:41:28.391Z,2.60
2018-09-20T09:42:28.393Z,2.50
2018-09-20T09:43:28.403Z,2.50
2018-09-20T09:44:28.414Z,2.60
2018-09-20T09:45:28.427Z,2.40
2018-09-20T09:46:28.438Z,2.50
2018-09-20T09:47:28.449Z,2.40
2018-09-20T09:48:28.463Z,2.20
2018-09-20T09:49:28.466Z,2.30
2018-09-20T09:50:28.480Z,2.30
2018-09-20T09:51:28.489Z,2.20
2018-09-20T09:52:28.504Z,2.30
2018-09-20T09:53:28.516Z,2.40
2018-09-20T09:54:28.548Z,2.30
2018-09-20T09:55:28.538Z,2.30
2018-09-20T09:56:28.551Z,2.10
2018-09-20T09:57:28.557Z,2.00
2018-09-20T09:58:28.570Z,2.10
2018-09-20T09:59:28.583Z,2.00
2018-09-20T10:00:28.597Z,2.30
2018-09-20T10:01:28.600Z,1.90
2018-09-20T10:02:28.666Z,1.90
2018-09-20T10:03:28.622Z,2.60
2018-09-20T10:04:28.634Z,2.40
2018-09-20T10:05:28.649Z,2.00
2018-09-20T10:06:28.661Z,2.40
2018-09-20T10:07:28.691Z,2.10
2018-09-20T10:08:28.685Z,2.00
2018-09-20T10:09:28.694Z,2.10
2018-09-20T10:10:28.705Z,2.00
2018-09-20T10:11:28.716Z,2.10
2018-09-20T10:12:28.731Z,2.20
2018-09-20T10:13:28.769Z,2.20
2018-09-20T10:14:28.757Z,2.20
2018-09-20T10:15:28.765Z,2.30
2018-09-20T10:16:28.777Z,2.30
2018-09-20T10:17:28.792Z,2.40
2018-09-20T10:18:28.806Z,2.30
2018-09-20T10:19:28.821Z,2.50
2018-09-20T10:20:28.831Z,2.10
2018-09-20T10:21:28.837Z,2.20
2018-09-20T10:22:28.850Z,2.70
2018-09-20T10:23:28.861Z,2.20
2018-09-20T10:24:28.874Z,2.40
2018-09-20T10:25:28.890Z,2.20
2018-09-20T10:26:28.903Z,2.20
2018-09-20T10:27:28.914Z,2.10
2018-09-20T10:28:28.925Z,1.90
2018-09-20T10:29:28.933Z,2.30
2018-09-20T10:30:28.946Z,1.80
2018-09-20T10:31:28.984Z,2.40
2018-09-20T10:32:28.974Z,2.10
2018-09-20T10:33:28.981Z,1.90
2018-09-20T10:34:28.993Z,1.90
2018-09-20T10:35:29.004Z,1.90
2018-09-20T10:36:29.017Z,2.40
2018-09-20T10:37:29.033Z,1.80
2018-09-20T10:38:29.044Z,2.10
2018-09-20T10:39:29.056Z,2.00
2018-09-20T10:40:29.068Z,1.80
2018-09-20T10:41:29.075Z,2.00
2018-09-20T10:42:29.087Z,2.10
2018-09-20T10:43:29.098Z,1.90
2018-09-20T10:44:29.109Z,2.30
2018-09-20T10:45:29.124Z,2.00
2018-09-20T10:46:29.137Z,2.10
2018-09-20T10:47:29.144Z,2.00
2018-09-20T10:48:29.155Z,2.10
2018-09-20T10:49:29.170Z,1.90
2018-09-20T10:50:29.182Z,2.30
2018-09-20T10:51:29.216Z,2.10
2018-09-20T10:52:29.218Z,2.30
2018-09-20T10:53:29.212Z,2.10
2018-09-20T10:54:29.251Z,1.90
2018-09-20T10:55:29.234Z,2.10
2018-09-20T10:56:29.244Z,1.90
2018-09-20T10:57:29.259Z,2.30
2018-09-20T10:58:29.270Z,2.30
2018-09-20T10:59:29.280Z,2.00
2018-09-20T11:00:29.290Z,1.90
2018-09-20T11:01:29.296Z,2.10
2018-09-20T11:02:29.310Z,2.20
2018-09-20T11:03:29.399Z,2.10
2018-09-20T11:04:29.334Z,2.20
2018-09-20T11:05:29.337Z,2.10
2018-09-20T11:06:29.348Z,2.20
2018-09-20T11:07:29.359Z,2.40
2018-09-20T11:08:29.371Z,1.80
2018-09-20T11:09:29.386Z,2.10
2018-09-20T11:10:29.426Z,1.80
2018-09-20T11:11:29.409Z,1.90
2018-09-20T11:12:29.421Z,2.20
2018-09-20T11:13:29.427Z,2.20
2018-09-20T11:14:29.438Z,2.20
2018-09-20T11:15:29.452Z,2.00
2018-09-20T11:16:29.462Z,2.10
2018-09-20T11:17:29.474Z,2.20
2018-09-20T11:18:29.486Z,1.90
2018-09-20T11:19:29.492Z,2.10
2018-09-20T11:20:29.504Z,2.20
2018-09-20T11:21:29.517Z,1.70
2018-09-20T11:22:29.529Z,2.20
2018-09-20T11:23:29.540Z,2.40
2018-09-20T11:24:29.550Z,1.80
2018-09-20T11:25:29.554Z,2.10
2018-09-20T11:26:29.565Z,1.90
2018-09-20T11:27:29.576Z,2.30
2018-09-20T11:28:29.584Z,2.30
2018-09-20T11:29:29.598Z,1.80
2018-09-20T11:30:29.607Z,2.00
2018-09-20T11:31:29.614Z,1.80
2018-09-20T11:32:29.624Z,1.90
2018-09-20T11:33:29.626Z,1.70
2018-09-20T11:34:29.634Z,2.00
2018-09-20T11:35:29.648Z,2.10
2018-09-20T11:36:29.656Z,2.10
2018-09-20T11:37:29.663Z,1.70
2018-09-20T11:38:29.665Z,1.80
2018-09-20T11:39:29.672Z,1.90
2018-09-20T11:40:29.681Z,2.00
2018-09-20T11:41:29.692Z,2.00
2018-09-20T11:42:29.698Z,1.80
2018-09-20T11:43:29.705Z,1.90
2018-09-20T11:44:29.712Z,1.70
2018-09-20T11:45:29.713Z,1.90
2018-09-20T11:46:29.765Z,2.40
2018-09-20T11:47:29.726Z,2.10
2018-09-20T11:48:29.733Z,2.10
2018-09-20T11:49:29.741Z,1.80
2018-09-20T11:50:29.749Z,2.10
2018-09-20T11:51:29.751Z,2.00
2018-09-20T11:52:29.757Z,2.10
2018-09-20T11:53:29.766Z,2.10
2018-09-20T11:54:29.771Z,1.90
2018-09-20T11:55:29.779Z,2.10
2018-09-20T11:56:29.784Z,2.10
2018-09-20T11:57:29.784Z,2.20
2018-09-20T11:58:29.789Z,2.00
2018-09-20T11:59:29.798Z,1.80
2018-09-20T12:00:29.801Z,1.70
2018-09-20T12:01:29.810Z,1.90
2018-09-20T12:02:29.814Z,1.90
2018-09-20T12:03:29.821Z,1.70
2018-09-20T12:04:29.827Z,1.60
2018-09-20T12:05:29.827Z,1.50
2018-09-20T12:06:29.832Z,1.90
2018-09-20T12:07:29.845Z,1.90
2018-09-20T12:08:29.847Z,1.90
2018-09-20T12:09:29.846Z,1.90
2018-09-20T12:10:29.852Z,2.20
2018-09-20T12:11:29.857Z,2.10
2018-09-20T12:12:29.862Z,2.10
2018-09-20T12:13:29.869Z,1.60
2018-09-20T12:14:29.934Z,1.60
2018-09-20T12:15:29.881Z,1.80
2018-09-20T12:16:29.885Z,2.20
2018-09-20T12:17:29.891Z,1.60
2018-09-20T12:18:29.889Z,2.00
2018-09-20T12:19:29.894Z,1.80
2018-09-20T12:20:29.899Z,2.00
2018-09-20T12:21:29.908Z,1.70
2018-09-20T12:22:29.912Z,1.70
2018-09-20T12:23:29.912Z,1.60
2018-09-20T12:24:29.919Z,2.00
2018-09-20T12:25:29.928Z,1.50
2018-09-20T12:26:29.931Z,1.90
2018-09-20T12:27:29.939Z,1.90
2018-09-20T12:28:29.942Z,2.00
2018-09-20T12:29:29.937Z,1.80
2018-09-20T12:30:29.944Z,2.00
2018-09-20T12:31:29.970Z,2.10
2018-09-20T12:32:29.953Z,1.80
2018-09-20T12:33:29.960Z,1.80
2018-09-20T12:34:29.965Z,1.70
2018-09-20T12:35:30.101Z,1.70
2018-09-20T12:36:29.975Z,1.80
2018-09-20T12:37:29.972Z,1.70
2018-09-20T12:38:29.977Z,1.90
2018-09-20T12:39:29.986Z,2.10
2018-09-20T12:40:29.989Z,1.60
2018-09-20T12:41:29.988Z,1.80
2018-09-20T12:42:29.993Z,1.60
2018-09-20T12:43:29.995Z,1.60
2018-09-20T12:44:30.001Z,1.60
2018-09-20T12:45:30.012Z,1.60
2018-09-20T12:46:30.013Z,1.50
2018-09-20T12:47:30.027Z,1.70
2018-09-20T12:48:30.019Z,1.80
2018-09-20T12:49:30.019Z,1.90
2018-09-20T12:50:30.025Z,1.90
2018-09-20T12:51:30.024Z,1.70
2018-09-20T12:52:30.028Z,1.80
2018-09-20T12:53:30.036Z,1.70
2018-09-20T12:54:30.099Z,1.80
2018-09-20T12:55:30.042Z,1.80
2018-09-20T12:56:30.045Z,2.00
2018-09-20T12:57:30.052Z,1.90
2018-09-20T12:58:30.054Z,2.10
2018-09-20T12:59:30.058Z,2.00
2018-09-20T13:00:30.064Z,1.80
2018-09-20T13:01:30.059Z,1.80
2018-09-20T13:02:30.066Z,1.70
2018-09-20T13:03:30.066Z,2.20
2018-09-20T13:04:30.072Z,2.00
2018-09-20T13:05:30.081Z,2.00
2018-09-20T13:06:30.086Z,2.20
2018-09-20T13:07:30.084Z,1.70
2018-09-20T13:08:30.089Z,1.90
2018-09-20T13:09:30.088Z,1.70
2018-09-20T13:10:30.091Z,1.60
2018-09-20T13:11:30.098Z,1.60
2018-09-20T13:12:30.102Z,1.90
2018-09-20T13:13:30.101Z,1.90
2018-09-20T13:14:30.104Z,1.80
2018-09-20T13:15:30.109Z,1.80
2018-09-20T13:16:30.112Z,1.80
2018-09-20T13:17:30.119Z,2.20
2018-09-20T13:18:30.122Z,1.80
2018-09-20T13:19:30.128Z,1.90